Time;durP1;ratioP1;P1;durP2;ratioP2;P2;SDS_P1;SDS_P2;PMS_P1;PMS_P2;Temp;Humidity;BMP_temperature;BMP_pressure;BME280_temperature;BME280_humidity;BME280_pressure;Samples;Min_cycle;Max_cycle;Signal;HPM_P1;HPM_P2
2022/02/25 00:01:15;;;;;;;1.73;0.70;;;8.00;51.50;;;;;;5033401;28;20218;-69
2022/02/25 00:03:47;;;;;;;1.85;0.70;;;7.80;51.80;;;;;;5033899;28;20240;-67
2022/02/25 00:06:16;;;;;;;1.88;0.93;;;7.70;52.10;;;;;;5033356;28;20272;-67
2022/02/25 00:08:43;;;;;;;3.25;1.00;;;7.60;52.70;;;;;;5033302;28;20187;-66
2022/02/25 00:11:11;;;;;;;2.50;1.00;;;7.50;52.70;;;;;;5033157;28;20249;-67
2022/02/25 00:13:38;;;;;;;1.50;0.60;;;7.40;53.30;;;;;;5032891;28;20233;-66
2022/02/25 00:16:06;;;;;;;1.52;0.77;;;7.40;53.80;;;;;;5033015;28;20574;-66
2022/02/25 00:18:33;;;;;;;2.00;1.20;;;7.30;54.20;;;;;;5032490;28;20482;-67
2022/02/25 00:21:00;;;;;;;2.22;1.20;;;7.20;54.60;;;;;;5032313;28;20272;-66
2022/02/25 00:23:28;;;;;;;2.70;1.27;;;7.20;55.00;;;;;;5032933;28;20241;-67
2022/02/25 00:25:55;;;;;;;2.20;1.80;;;7.20;55.50;;;;;;5032537;28;20613;-66
2022/02/25 00:28:22;;;;;;;1.60;0.95;;;;;;;;;;5032704;28;20246;-66
2022/02/25 00:30:49;;;;;;;2.55;1.95;;;7.10;55.90;;;;;;5032087;28;20191;-66
2022/02/25 00:33:16;;;;;;;2.30;1.48;;;7.00;56.00;;;;;;5032491;28;20186;-67
2022/02/25 00:35:44;;;;;;;2.13;1.02;;;7.00;56.60;;;;;;5032132;28;20198;-67
2022/02/25 00:38:11;;;;;;;2.28;1.10;;;7.00;56.50;;;;;;5032204;28;20194;-66
2022/02/25 00:40:40;;;;;;;2.10;0.85;;;6.90;56.50;;;;;;5032281;28;20210;-66
2022/02/25 00:43:07;;;;;;;2.97;1.83;;;6.90;56.60;;;;;;5032342;28;20252;-66
2022/02/25 00:45:33;;;;;;;1.95;0.82;;;7.00;56.90;;;;;;5032352;28;20523;-67
2022/02/25 00:48:01;;;;;;;2.50;1.60;;;7.00;56.90;;;;;;5031958;28;20308;-66
2022/02/25 00:50:28;;;;;;;1.73;0.70;;;7.00;57.20;;;;;;5032096;28;20187;-67
2022/02/25 00:52:56;;;;;;;8.95;5.38;;;7.00;57.30;;;;;;5032022;28;20210;-66
2022/02/25 00:55:23;;;;;;;3.35;2.95;;;6.90;57.00;;;;;;5031808;28;20183;-66
2022/02/25 00:57:52;;;;;;;2.22;0.93;;;6.90;57.00;;;;;;5031792;28;20244;-66
2022/02/25 01:00:21;;;;;;;1.70;0.60;;;6.90;57.30;;;;;;5031918;28;20194;-66
2022/02/25 01:02:48;;;;;;;1.80;0.70;;;6.90;57.20;;;;;;5032129;28;20231;-66
2022/02/25 01:05:21;;;;;;;1.60;0.70;;;7.00;57.30;;;;;;5032716;28;20240;-67
2022/02/25 01:07:48;;;;;;;2.13;0.80;;;6.90;57.30;;;;;;5032566;28;20520;-67
2022/02/25 01:10:18;;;;;;;2.08;0.70;;;6.90;57.60;;;;;;5032747;28;20236;-67
2022/02/25 01:12:46;;;;;;;1.77;1.00;;;6.90;58.30;;;;;;5032555;28;20280;-67
2022/02/25 01:15:16;;;;;;;2.63;1.15;;;6.80;58.00;;;;;;5032691;28;20470;-67
2022/02/25 01:17:43;;;;;;;2.10;1.00;;;6.70;58.20;;;;;;5032854;28;20183;-67
2022/02/25 01:20:11;;;;;;;2.10;1.40;;;6.60;58.50;;;;;;5032830;28;20507;-66
2022/02/25 01:22:38;;;;;;;3.00;2.60;;;6.60;58.40;;;;;;5032816;28;20330;-67
2022/02/25 01:25:07;;;;;;;2.10;1.30;;;6.50;58.70;;;;;;5033045;28;20226;-67
2022/02/25 01:27:34;;;;;;;2.10;0.98;;;6.40;59.00;;;;;;5032257;28;20676;-67
2022/02/25 01:30:00;;;;;;;2.13;0.90;;;6.40;59.10;;;;;;5032653;28;20241;-67
2022/02/25 01:32:29;;;;;;;3.35;0.80;;;6.40;59.00;;;;;;5031915;28;20651;-66
2022/02/25 01:34:56;;;;;;;2.63;0.90;;;6.30;59.10;;;;;;5032710;28;20187;-67
2022/02/25 01:37:24;;;;;;;1.88;1.00;;;6.20;59.00;;;;;;5032804;28;20187;-67
2022/02/25 01:39:51;;;;;;;1.83;0.80;;;6.00;59.50;;;;;;5032509;28;20226;-66
2022/02/25 01:42:18;;;;;;;3.50;0.80;;;5.80;60.60;;;;;;5032106;28;20254;-66
2022/02/25 01:44:45;;;;;;;2.13;1.05;;;5.80;61.10;;;;;;5032519;28;20214;-67
2022/02/25 01:47:14;;;;;;;2.13;1.00;;;5.80;61.10;;;;;;5032561;28;20233;-67
2022/02/25 01:49:43;;;;;;;1.80;0.90;;;5.70;61.60;;;;;;5032277;28;20241;-67
2022/02/25 01:52:14;;;;;;;1.60;0.68;;;5.70;61.90;;;;;;5032091;28;20276;-66
2022/02/25 01:54:42;;;;;;;1.65;0.82;;;5.70;62.50;;;;;;5032556;28;20269;-67
2022/02/25 01:57:11;;;;;;;1.75;0.95;;;5.60;62.30;;;;;;5032572;28;20600;-66
2022/02/25 01:59:38;;;;;;;1.77;1.00;;;5.60;62.90;;;;;;5031923;28;20195;-66
2022/02/25 02:02:06;;;;;;;1.90;0.90;;;5.60;63.10;;;;;;5032414;28;20229;-66
2022/02/25 02:04:33;;;;;;;1.60;0.70;;;5.60;63.60;;;;;;5032163;28;20191;-66
2022/02/25 02:07:02;;;;;;;1.60;0.80;;;5.60;63.90;;;;;;5032608;28;20222;-66
2022/02/25 02:09:29;;;;;;;1.60;0.80;;;5.60;64.00;;;;;;5032460;28;20191;-66
2022/02/25 02:11:57;;;;;;;1.58;0.60;;;5.60;64.80;;;;;;5014499;28;20196;-66
2022/02/25 02:14:29;;;;;;;1.70;0.70;;;5.60;63.70;;;;;;5012013;28;20243;-67
2022/02/25 02:16:57;;;;;;;1.50;0.70;;;5.50;63.90;;;;;;5012418;28;20191;-71
2022/02/25 02:19:25;;;;;;;1.50;0.60;;;5.50;64.70;;;;;;5012650;28;20184;-66
2022/02/25 02:21:54;;;;;;;1.60;0.60;;;5.50;64.80;;;;;;5012449;28;20326;-66
2022/02/25 02:24:24;;;;;;;1.60;0.63;;;5.50;64.90;;;;;;5012410;28;20196;-67
2022/02/25 02:26:52;;;;;;;1.50;0.60;;;5.50;65.30;;;;;;5012480;28;20278;-67
2022/02/25 02:29:19;;;;;;;1.40;0.60;;;5.40;65.80;;;;;;5012191;28;20275;-66
2022/02/25 02:31:46;;;;;;;1.50;0.68;;;5.40;65.90;;;;;;5012079;28;20242;-67
2022/02/25 02:34:15;;;;;;;1.40;0.50;;;5.40;66.00;;;;;;5012168;28;20279;-67
2022/02/25 02:36:42;;;;;;;1.52;0.65;;;5.30;66.40;;;;;;5012396;28;20543;-66
2022/02/25 02:39:10;;;;;;;2.55;1.02;;;5.30;66.50;;;;;;5012017;28;20270;-66
2022/02/25 02:41:38;;;;;;;1.90;0.50;;;5.30;66.10;;;;;;5012155;28;20277;-67
2022/02/25 02:44:06;;;;;;;3.20;0.70;;;5.30;65.00;;;;;;5013949;28;20390;-67
2022/02/25 02:46:33;;;;;;;1.50;0.57;;;5.30;63.30;;;;;;5016037;28;20274;-67
2022/02/25 02:49:07;;;;;;;1.95;0.50;;;5.20;61.60;;;;;;5015734;28;20609;-66
2022/02/25 02:51:34;;;;;;;2.38;0.60;;;5.20;61.20;;;;;;5015883;28;20187;-66
2022/02/25 02:54:01;;;;;;;2.53;0.70;;;5.20;60.70;;;;;;5015692;28;20696;-66
2022/02/25 02:56:28;;;;;;;2.28;0.60;;;5.20;60.40;;;;;;5015907;28;20227;-66
2022/02/25 02:58:56;;;;;;;3.72;1.40;;;5.00;59.90;;;;;;5015572;28;20294;-66
2022/02/25 03:01:24;;;;;;;1.90;0.80;;;5.00;60.90;;;;;;5015457;28;20220;-66
2022/02/25 03:03:51;;;;;;;1.48;0.60;;;5.00;61.10;;;;;;5015754;28;20194;-66
2022/02/25 03:06:18;;;;;;;1.40;0.50;;;5.00;60.70;;;;;;5015599;28;20298;-67
2022/02/25 03:08:46;;;;;;;1.60;0.50;;;5.00;60.70;;;;;;5015520;28;20187;-66
2022/02/25 03:11:13;;;;;;;1.95;0.70;;;5.00;61.10;;;;;;5014978;28;20372;-66
2022/02/25 03:13:40;;;;;;;1.38;0.50;;;5.00;61.20;;;;;;5014843;28;20227;-67
2022/02/25 03:16:09;;;;;;;2.08;1.08;;;5.00;61.60;;;;;;5014950;28;20226;-66
2022/02/25 03:18:36;;;;;;;2.60;0.60;;;4.90;62.00;;;;;;5015241;28;20612;-66
2022/02/25 03:21:03;;;;;;;1.50;0.60;;;4.90;61.60;;;;;;5015012;28;20187;-68
2022/02/25 03:23:30;;;;;;;2.15;0.68;;;4.80;61.90;;;;;;5015108;28;20282;-67
2022/02/25 03:25:56;;;;;;;1.80;0.70;;;4.90;62.20;;;;;;5014971;28;20291;-66
2022/02/25 03:28:23;;;;;;;3.05;0.75;;;4.80;61.60;;;;;;5014527;28;20718;-68
2022/02/25 03:30:50;;;;;;;1.73;0.57;;;4.80;60.70;;;;;;5014668;28;20215;-68
2022/02/25 03:33:18;;;;;;;1.30;0.50;;;4.80;60.60;;;;;;5014386;28;20274;-66
2022/02/25 03:35:45;;;;;;;1.95;0.70;;;4.70;60.70;;;;;;5014571;28;20693;-67
2022/02/25 03:38:12;;;;;;;1.80;0.57;;;4.70;60.60;;;;;;5014807;28;20274;-67
2022/02/25 03:40:39;;;;;;;1.75;0.70;;;4.60;60.50;;;;;;5013990;28;20286;-68
2022/02/25 03:43:06;;;;;;;2.03;0.70;;;4.60;60.80;;;;;;5014021;28;20227;-67
2022/02/25 03:45:33;;;;;;;1.40;0.57;;;4.60;61.30;;;;;;5013751;28;20282;-68
2022/02/25 03:48:00;;;;;;;2.20;0.60;;;4.60;62.00;;;;;;5014285;28;20706;-66
2022/02/25 03:50:28;;;;;;;1.80;0.70;;;4.60;61.70;;;;;;5013744;28;20194;-66
2022/02/25 03:52:55;;;;;;;1.88;0.70;;;4.50;61.80;;;;;;5013975;28;20274;-66
2022/02/25 03:55:22;;;;;;;2.10;0.60;;;4.50;61.80;;;;;;5012872;28;20242;-66
2022/02/25 03:57:49;;;;;;;2.05;0.60;;;4.50;61.60;;;;;;5013532;28;20195;-66
2022/02/25 04:00:16;;;;;;;5.97;0.60;;;4.50;61.50;;;;;;5013643;28;20366;-66
2022/02/25 04:02:43;;;;;;;1.50;0.50;;;4.40;62.00;;;;;;5013798;28;20705;-67
2022/02/25 04:05:15;;;;;;;1.80;0.63;;;4.40;61.50;;;;;;5014197;28;20278;-68
2022/02/25 04:07:45;;;;;;;1.98;0.90;;;4.40;61.60;;;;;;5013879;28;20223;-66
2022/02/25 04:10:13;;;;;;;1.50;0.70;;;4.40;61.70;;;;;;5013756;28;20192;-66
2022/02/25 04:12:40;;;;;;;2.00;0.90;;;4.30;61.10;;;;;;5012569;28;20226;-66
2022/02/25 04:15:09;;;;;;;3.35;0.95;;;4.40;61.30;;;;;;5012855;28;20278;-66
2022/02/25 04:17:36;;;;;;;1.90;0.60;;;4.30;61.30;;;;;;5013418;28;20275;-67
2022/02/25 04:20:04;;;;;;;2.40;0.73;;;4.30;60.60;;;;;;5012748;28;20282;-67
2022/02/25 04:22:31;;;;;;;2.63;0.60;;;4.20;60.10;;;;;;5013109;28;20310;-66
2022/02/25 04:24:59;;;;;;;1.40;0.50;;;4.10;61.40;;;;;;5013015;28;20723;-66
2022/02/25 04:27:26;;;;;;;3.35;0.70;;;4.10;61.30;;;;;;5013018;28;20199;-67
2022/02/25 04:29:53;;;;;;;1.48;0.57;;;4.10;60.90;;;;;;5012698;28;20642;-66
2022/02/25 04:32:20;;;;;;;3.00;1.23;;;4.10;61.20;;;;;;5009654;28;20218;-66
2022/02/25 04:34:48;;;;;;;2.90;0.70;;;4.10;60.30;;;;;;5014577;28;20279;-66
2022/02/25 04:37:15;;;;;;;1.35;0.50;;;4.10;60.50;;;;;;5020595;28;20595;-67
2022/02/25 04:39:42;;;;;;;2.50;0.50;;;4.00;60.60;;;;;;5011978;28;20291;-66
2022/02/25 04:42:10;;;;;;;5.28;2.15;;;4.00;60.20;;;;;;5011512;28;20211;-66
2022/02/25 04:44:37;;;;;;;1.70;0.70;;;4.00;60.50;;;;;;5011749;28;20742;-66
2022/02/25 04:47:04;;;;;;;3.30;0.82;;;4.10;60.30;;;;;;5011527;28;20543;-66
2022/02/25 04:49:31;;;;;;;4.35;1.25;;;4.00;60.30;;;;;;5011851;28;20206;-66
2022/02/25 04:51:58;;;;;;;2.20;0.90;;;4.00;60.10;;;;;;5011537;28;20192;-66
2022/02/25 04:54:25;;;;;;;3.45;1.45;;;3.90;60.40;;;;;;5017595;28;20188;-66
2022/02/25 04:56:52;;;;;;;3.25;1.05;;;3.90;60.10;;;;;;5030824;28;20202;-66
2022/02/25 04:59:35;;;;;;;3.08;0.75;;;3.80;60.00;;;;;;5031041;28;20228;-66
2022/02/25 05:02:02;;;;;;;2.80;0.90;;;3.60;61.60;;;;;;5030725;28;20712;-66
2022/02/25 05:04:29;;;;;;;1.75;0.88;;;3.60;62.40;;;;;;5030991;28;20187;-66
2022/02/25 05:06:56;;;;;;;1.85;0.80;;;3.50;62.20;;;;;;5031094;28;20373;-66
2022/02/25 05:09:22;;;;;;;2.50;0.85;;;3.50;62.30;;;;;;5031663;28;20253;-66
2022/02/25 05:11:49;;;;;;;1.85;0.70;;;3.50;62.60;;;;;;5031116;28;20635;-66
2022/02/25 05:22:27;;;;;;;2.78;0.80;;;3.60;59.60;;;;;;5031531;28;20221;-66
2022/02/25 05:24:59;;;;;;;2.33;1.00;;;3.60;60.10;;;;;;5031115;28;20261;-67
2022/02/25 05:27:26;;;;;;;2.75;0.95;;;3.70;59.30;;;;;;5031248;28;20538;-66
2022/02/25 05:29:53;;;;;;;4.97;1.05;;;3.60;58.90;;;;;;5031247;28;20223;-66
2022/02/25 05:32:21;;;;;;;3.70;1.15;;;3.60;58.90;;;;;;5031238;28;20560;-66
2022/02/25 05:34:48;;;;;;;2.30;0.77;;;3.60;58.70;;;;;;5031341;28;20222;-66
2022/02/25 05:37:15;;;;;;;1.60;0.70;;;3.60;58.80;;;;;;5031575;28;20679;-69
2022/02/25 05:39:42;;;;;;;1.73;0.60;;;3.40;59.30;;;;;;5032282;28;20238;-66
2022/02/25 05:42:10;;;;;;;1.90;0.70;;;3.50;59.60;;;;;;5031186;28;20613;-66
2022/02/25 05:44:36;;;;;;;2.78;1.08;;;3.50;59.80;;;;;;5031011;28;20198;-66
2022/02/25 05:47:04;;;;;;;7.93;1.10;;;3.50;59.90;;;;;;5031941;28;20187;-70
2022/02/25 05:49:33;;;;;;;6.43;1.40;;;3.50;59.90;;;;;;5017491;28;20191;-69
2022/02/25 05:51:59;;;;;;;5.03;1.83;;;3.50;60.00;;;;;;5024767;28;20183;-69
2022/02/25 05:54:26;;;;;;;2.30;1.00;;;3.50;60.20;;;;;;5030314;28;20201;-69
2022/02/25 05:56:53;;;;;;;4.32;1.00;;;3.50;59.90;;;;;;5030393;28;20194;-68
2022/02/25 05:59:20;;;;;;;2.05;0.70;;;3.50;60.30;;;;;;5024263;28;20195;-66
2022/02/25 06:01:47;;;;;;;3.92;0.95;;;3.60;60.40;;;;;;5027137;28;20244;-68
2022/02/25 06:04:14;;;;;;;2.97;1.13;;;3.60;59.80;;;;;;5023519;28;20258;-66
2022/02/25 06:06:43;;;;;;;9.68;1.40;;;3.60;59.80;;;;;;5028072;28;20203;-66
2022/02/25 06:09:10;;;;;;;2.35;1.30;;;3.60;59.50;;;;;;5028544;28;20187;-70
2022/02/25 06:11:37;;;;;;;2.92;1.10;;;3.50;59.60;;;;;;5024577;28;20191;-67
2022/02/25 06:14:04;;;;;;;3.25;1.38;;;3.50;59.70;;;;;;5028109;28;20254;-66
2022/02/25 06:16:31;;;;;;;3.30;1.35;;;3.60;60.00;;;;;;5025304;28;20183;-66
2022/02/25 06:18:58;;;;;;;10.18;2.20;;;3.60;59.90;;;;;;5030290;28;20229;-67
2022/02/25 06:21:24;;;;;;;3.05;1.50;;;3.60;60.00;;;;;;5027502;28;20218;-66
2022/02/25 06:23:53;;;;;;;5.55;2.63;;;3.60;59.90;;;;;;5031590;28;20688;-66
2022/02/25 06:26:20;;;;;;;5.35;1.73;;;3.50;59.20;;;;;;5032971;28;20230;-66
2022/02/25 06:28:48;;;;;;;25.08;11.60;;;3.40;59.40;;;;;;5032328;28;20331;-67
2022/02/25 06:31:15;;;;;;;32.15;12.75;;;3.30;59.60;;;;;;5027491;28;20298;-66
2022/02/25 06:33:42;;;;;;;19.15;8.52;;;3.30;60.50;;;;;;5032730;28;20207;-66
2022/02/25 06:36:10;;;;;;;15.35;6.00;;;3.30;61.20;;;;;;5031421;28;20223;-68
2022/02/25 06:38:38;;;;;;;3.67;0.95;;;3.30;61.10;;;;;;5030855;28;20233;-71
2022/02/25 06:41:06;;;;;;;16.95;8.18;;;3.30;60.50;;;;;;5030464;28;20186;-66
2022/02/25 06:43:41;;;;;;;5.28;2.50;;;3.30;61.10;;;;;;5032675;28;20596;-67
2022/02/25 06:46:08;;;;;;;5.18;3.65;;;3.30;62.10;;;;;;5031984;28;20190;-66
2022/02/25 06:48:35;;;;;;;11.90;1.90;;;3.20;62.00;;;;;;5031374;28;20273;-66
2022/02/25 06:51:02;;;;;;;7.38;3.70;;;3.10;62.20;;;;;;5032175;28;20304;-66
2022/02/25 06:53:29;;;;;;;11.65;5.28;;;3.10;62.90;;;;;;5031152;28;20765;-66
2022/02/25 06:55:56;;;;;;;19.38;11.77;;;3.10;63.00;;;;;;5021650;28;20180;-66
2022/02/25 06:58:25;;;;;;;9.02;4.55;;;3.20;63.20;;;;;;5033731;28;20198;-66
2022/02/25 07:00:52;;;;;;;5.70;3.13;;;3.30;63.90;;;;;;5032797;28;20690;-66
2022/02/25 07:03:18;;;;;;;3.95;2.00;;;3.40;64.20;;;;;;5033204;28;20314;-66
2022/02/25 07:05:45;;;;;;;2.03;0.80;;;3.50;64.40;;;;;;5031975;28;20278;-66
2022/02/25 07:08:12;;;;;;;2.95;1.50;;;3.50;63.00;;;;;;5031976;28;20222;-66
2022/02/25 07:10:40;;;;;;;6.22;2.70;;;3.60;62.10;;;;;;5032900;28;20610;-66
2022/02/25 07:13:08;;;;;;;5.00;3.00;;;3.50;61.30;;;;;;5027126;28;20269;-67
2022/02/25 07:15:40;;;;;;;3.17;2.10;;;3.50;62.10;;;;;;5029325;28;20274;-67
2022/02/25 07:18:07;;;;;;;3.83;2.50;;;3.40;61.70;;;;;;5032664;28;20680;-67
2022/02/25 07:20:34;;;;;;;9.80;5.20;;;3.50;61.70;;;;;;5033578;28;20278;-67
2022/02/25 07:23:01;;;;;;;7.85;4.30;;;3.50;61.80;;;;;;5032851;28;20317;-66
2022/02/25 07:25:28;;;;;;;6.60;3.53;;;3.50;62.30;;;;;;5033596;28;20277;-67
2022/02/25 07:27:55;;;;;;;7.45;4.20;;;3.50;62.20;;;;;;5033377;28;20277;-66
2022/02/25 07:30:24;;;;;;;10.57;3.28;;;3.50;62.30;;;;;;5031842;28;20282;-66
2022/02/25 07:32:52;;;;;;;2.60;1.48;;;3.40;62.30;;;;;;5032795;28;20656;-66
2022/02/25 07:35:19;;;;;;;7.07;3.10;;;3.30;63.00;;;;;;5033335;28;20274;-66
2022/02/25 07:37:46;;;;;;;8.00;2.08;;;3.30;63.50;;;;;;5033350;28;20218;-66
2022/02/25 07:40:14;;;;;;;3.53;2.20;;;3.30;63.50;;;;;;5032836;28;20693;-67
2022/02/25 07:42:46;;;;;;;7.28;3.67;;;3.30;63.20;;;;;;5028488;28;20282;-66
2022/02/25 07:45:13;;;;;;;5.57;2.30;;;3.30;63.70;;;;;;5032813;28;20202;-68
2022/02/25 07:47:41;;;;;;;5.13;2.92;;;3.50;63.90;;;;;;5033288;28;20278;-67
2022/02/25 07:50:11;;;;;;;19.98;8.10;;;3.70;63.40;;;;;;5032840;28;20288;-67
2022/02/25 07:52:38;;;;;;;10.07;5.15;;;3.80;62.60;;;;;;5032863;28;20238;-66
2022/02/25 07:55:06;;;;;;;8.27;4.20;;;3.90;62.20;;;;;;5033127;28;20274;-67
2022/02/25 07:57:35;;;;;;;6.60;4.32;;;4.00;62.00;;;;;;5032253;28;20194;-67
2022/02/25 08:00:04;;;;;;;10.18;4.95;;;4.10;62.20;;;;;;5032791;28;20187;-66
2022/02/25 08:02:31;;;;;;;24.77;11.57;;;4.20;62.50;;;;;;5033021;28;20191;-66
2022/02/25 08:04:58;;;;;;;36.80;17.98;;;4.40;63.00;;;;;;5032643;28;20227;-68
2022/02/25 08:07:26;;;;;;;43.58;24.35;;;4.50;62.50;;;;;;5032310;28;20278;-66
2022/02/25 08:09:53;;;;;;;9.77;5.70;;;4.40;62.20;;;;;;5032557;28;20285;-66
2022/02/25 08:12:20;;;;;;;6.10;1.45;;;4.40;60.70;;;;;;5032787;28;20198;-66
2022/02/25 08:14:47;;;;;;;5.32;3.50;;;4.20;60.50;;;;;;5032319;28;20627;-68
2022/02/25 08:17:14;;;;;;;4.50;1.60;;;4.20;61.60;;;;;;5028431;28;20602;-66
2022/02/25 08:19:41;;;;;;;3.70;2.00;;;4.20;61.30;;;;;;5032593;28;20281;-69
2022/02/25 08:22:08;;;;;;;5.47;2.92;;;4.10;61.40;;;;;;5032546;28;20202;-68
2022/02/25 08:24:36;;;;;;;5.55;2.00;;;4.10;62.00;;;;;;5031980;28;20221;-69
2022/02/25 08:27:04;;;;;;;8.07;3.25;;;4.00;62.60;;;;;;5028631;28;20287;-66
2022/02/25 08:29:31;;;;;;;6.03;2.67;;;4.10;63.10;;;;;;5032134;28;20205;-67
2022/02/25 08:31:58;;;;;;;5.35;1.70;;;4.20;63.70;;;;;;5032776;28;20213;-66
2022/02/25 08:34:24;;;;;;;5.53;2.38;;;4.40;64.30;;;;;;5031850;28;20277;-67
2022/02/25 08:36:55;;;;;;;5.85;3.20;;;4.50;63.70;;;;;;5032361;28;20654;-66
2022/02/25 08:39:22;;;;;;;4.15;1.88;;;4.70;61.90;;;;;;5032387;28;20199;-66
2022/02/25 08:41:50;;;;;;;3.10;1.30;;;4.70;61.90;;;;;;5031701;28;20635;-66
2022/02/25 08:44:17;;;;;;;2.47;1.65;;;4.90;61.50;;;;;;5031803;28;20305;-66
2022/02/25 08:46:45;;;;;;;4.38;1.60;;;5.00;61.20;;;;;;5031919;28;20281;-66
2022/02/25 08:49:12;;;;;;;4.60;1.85;;;5.20;60.80;;;;;;5031883;28;20205;-68
2022/02/25 08:51:40;;;;;;;3.97;2.28;;;5.20;59.90;;;;;;5031808;28;20282;-69
2022/02/25 08:54:07;;;;;;;4.20;2.25;;;5.30;59.70;;;;;;5027807;28;20229;-67
2022/02/25 08:56:34;;;;;;;4.15;2.45;;;6.10;64.00;;;;;;5031950;28;20325;-67
2022/02/25 08:59:02;;;;;;;4.03;2.35;;;9.90;61.70;;;;;;5032076;28;20186;-67
2022/02/25 09:01:30;;;;;;;3.83;2.45;;;13.60;46.90;;;;;;5030957;28;20725;-69
2022/02/25 09:04:00;;;;;;;3.47;1.92;;;15.20;38.80;;;;;;5031827;28;20227;-67
2022/02/25 09:06:28;;;;;;;5.82;3.17;;;16.90;39.10;;;;;;5031750;28;20270;-68
2022/02/25 09:08:55;;;;;;;15.30;9.15;;;19.00;30.60;;;;;;5031597;28;20198;-68
2022/02/25 09:11:22;;;;;;;29.97;18.13;;;18.90;29.10;;;;;;5031415;28;20282;-68
2022/02/25 09:13:49;;;;;;;7.60;3.77;;;19.00;28.60;;;;;;5031553;28;20461;-67
2022/02/25 09:16:17;;;;;;;7.13;4.67;;;18.90;26.70;;;;;;5031533;28;20529;-67
2022/02/25 09:18:45;;;;;;;8.70;2.70;;;17.30;26.40;;;;;;5031642;28;20513;-68
2022/02/25 09:21:12;;;;;;;5.25;2.70;;;15.50;27.30;;;;;;5027312;28;20965;-67
2022/02/25 09:23:40;;;;;;;5.25;1.70;;;13.60;28.90;;;;;;5031531;28;20218;-67
2022/02/25 09:26:07;;;;;;;14.07;3.05;;;12.20;30.80;;;;;;5031640;28;20183;-67
2022/02/25 09:28:34;;;;;;;5.72;2.35;;;10.50;32.80;;;;;;5031033;28;20187;-68
2022/02/25 09:31:01;;;;;;;3.97;2.88;;;9.40;37.90;;;;;;5031567;28;20218;-67
2022/02/25 09:33:29;;;;;;;3.05;1.52;;;8.40;40.80;;;;;;5031648;28;20213;-67
2022/02/25 09:35:56;;;;;;;2.97;1.70;;;7.60;43.30;;;;;;5031456;28;20223;-66
2022/02/25 09:38:23;;;;;;;2.70;1.40;;;7.20;45.10;;;;;;5030829;28;20717;-67
2022/02/25 09:40:50;;;;;;;4.80;1.90;;;6.90;47.70;;;;;;5031278;28;20195;-67
2022/02/25 09:43:17;;;;;;;9.48;3.50;;;7.80;53.70;;;;;;5031311;28;20603;-69
2022/02/25 09:45:44;;;;;;;7.68;2.58;;;10.80;48.80;;;;;;5031189;28;20265;-68
2022/02/25 09:48:12;;;;;;;6.38;3.78;;;13.40;42.70;;;;;;5030610;28;20186;-67
2022/02/25 09:50:42;;;;;;;4.82;1.80;;;16.40;40.00;;;;;;5031121;28;20195;-68
2022/02/25 09:53:09;;;;;;;5.20;2.20;;;17.40;34.40;;;;;;5030429;28;20197;-68
2022/02/25 09:55:37;;;;;;;3.70;2.70;;;19.00;30.30;;;;;;5031224;28;20527;-68
2022/02/25 09:58:06;;;;;;;3.10;1.53;;;21.40;28.40;;;;;;5026841;28;20457;-68
2022/02/25 10:00:35;;;;;;;3.50;1.20;;;23.80;27.20;;;;;;5031059;28;21225;-68
2022/02/25 10:03:04;;;;;;;11.90;6.80;;;25.50;23.40;;;;;;5030798;28;20951;-68
2022/02/25 10:05:34;;;;;;;6.80;2.00;;;26.70;21.10;;;;;;5031001;28;20876;-68
2022/02/25 10:08:10;;;;;;;4.57;1.50;;;27.90;20.50;;;;;;5031204;28;20446;-68
2022/02/25 10:10:48;;;;;;;3.40;1.50;;;29.70;19.10;;;;;;5030526;28;20517;-70
2022/02/25 10:13:18;;;;;;;3.90;1.30;;;31.60;18.80;;;;;;5030935;28;20512;-68
2022/02/25 10:15:46;;;;;;;2.93;1.40;;;33.60;17.10;;;;;;5030932;28;20765;-71
2022/02/25 10:18:15;;;;;;;4.10;1.50;;;34.70;15.70;;;;;;5026514;28;20796;-68
2022/02/25 10:20:42;;;;;;;3.13;1.80;;;35.60;14.20;;;;;;5031146;28;20552;-69
2022/02/25 10:23:26;;;;;;;3.60;1.10;;;36.50;13.20;;;;;;5031047;28;20528;-68
2022/02/25 10:25:54;;;;;;;2.57;1.10;;;37.50;11.80;;;;;;5030852;28;20441;-69
2022/02/25 10:28:31;;;;;;;3.63;1.30;;;38.10;11.30;;;;;;5030890;28;20528;-70
2022/02/25 10:31:21;;;;;;;2.97;1.30;;;36.70;10.70;;;;;;5030967;28;20524;-69
2022/02/25 10:34:04;;;;;;;2.90;1.20;;;36.50;11.00;;;;;;5026458;28;20935;-68
2022/02/25 10:36:44;;;;;;;2.63;1.40;;;36.20;11.90;;;;;;5030799;28;20465;-69
2022/02/25 10:39:13;;;;;;;8.83;2.40;;;35.10;9.80;;;;;;5028290;28;20473;-69
2022/02/25 10:41:40;;;;;;;2.73;1.30;;;31.90;10.60;;;;;;5030765;28;20509;-68
2022/02/25 10:44:08;;;;;;;2.40;1.00;;;28.90;12.10;;;;;;5030358;28;20496;-68
2022/02/25 10:46:35;;;;;;;2.53;1.20;;;26.10;14.00;;;;;;5030439;28;20518;-68
2022/02/25 10:49:06;;;;;;;2.60;1.23;;;23.30;16.20;;;;;;5030764;28;20434;-67
2022/02/25 10:51:36;;;;;;;2.80;1.40;;;20.60;18.90;;;;;;5030421;28;20430;-70
2022/02/25 10:54:04;;;;;;;3.03;1.87;;;18.20;21.00;;;;;;5030857;28;20509;-68
2022/02/25 10:56:46;;;;;;;4.27;1.83;;;16.30;22.70;;;;;;5030917;28;20437;-67
2022/02/25 10:59:13;;;;;;;3.70;1.50;;;14.70;25.10;;;;;;5027134;28;20812;-67
2022/02/25 11:01:42;;;;;;;3.20;1.55;;;13.50;26.80;;;;;;5030586;28;20517;-67
2022/02/25 11:04:11;;;;;;;2.65;1.40;;;12.50;27.80;;;;;;5030945;28;20187;-67
2022/02/25 11:06:39;;;;;;;2.70;1.45;;;12.10;30.60;;;;;;5033848;28;20191;-68
2022/02/25 11:09:06;;;;;;;2.67;1.30;;;15.10;36.10;;;;;;5034237;28;20226;-68
2022/02/25 11:11:35;;;;;;;4.70;3.17;;;20.00;30.20;;;;;;5034276;28;20859;-68
2022/02/25 11:14:05;;;;;;;5.10;2.40;;;24.60;25.80;;;;;;5033861;28;20481;-69
2022/02/25 11:16:33;;;;;;;5.37;1.70;;;28.10;20.60;;;;;;5028732;28;20461;-68
2022/02/25 11:19:03;;;;;;;3.10;2.13;;;27.80;17.40;;;;;;5034100;28;20445;-68
2022/02/25 11:21:31;;;;;;;3.70;1.70;;;29.10;19.60;;;;;;5034022;28;20765;-69
2022/02/25 11:24:00;;;;;;;3.77;1.23;;;31.60;17.30;;;;;;5033870;28;20509;-68
2022/02/25 11:26:26;;;;;;;5.43;1.50;;;33.80;15.40;;;;;;5033883;28;20984;-68
2022/02/25 11:28:59;;;;;;;2.93;1.50;;;35.30;13.10;;;;;;5033912;28;20528;-69
2022/02/25 11:31:31;;;;;;;4.33;1.40;;;36.40;13.00;;;;;;5033481;28;20440;-69
2022/02/25 11:34:00;;;;;;;4.17;1.53;;;37.60;12.20;;;;;;5033861;28;20509;-69
2022/02/25 11:36:43;;;;;;;4.60;1.73;;;38.40;11.60;;;;;;5033578;28;20983;-69
2022/02/25 11:39:19;;;;;;;3.43;1.30;;;39.00;10.60;;;;;;5033455;28;20445;-70
2022/02/25 11:41:50;;;;;;;2.60;1.20;;;39.20;10.20;;;;;;5033447;28;20925;-70
2022/02/25 11:44:24;;;;;;;4.10;1.50;;;38.40;8.80;;;;;;5033370;28;20449;-69
2022/02/25 11:46:54;;;;;;;4.27;2.00;;;35.00;8.80;;;;;;5033689;28;20422;-69
2022/02/25 11:49:23;;;;;;;3.10;1.43;;;32.60;10.50;;;;;;5032923;28;20430;-68
2022/02/25 11:51:59;;;;;;;4.33;1.60;;;30.60;13.50;;;;;;5033446;28;20742;-68
2022/02/25 11:54:40;;;;;;;8.47;2.07;;;28.90;12.70;;;;;;5033599;28;20563;-68
2022/02/25 11:57:29;;;;;;;3.50;1.27;;;27.50;15.90;;;;;;5030962;28;20443;-69
2022/02/25 12:00:19;;;;;;;3.37;1.70;;;29.00;16.20;;;;;;5033510;28;20552;-68
2022/02/25 12:03:12;;;;;;;4.53;1.33;;;30.60;15.20;;;;;;5029688;28;20806;-68
2022/02/25 12:05:45;;;;;;;3.07;1.50;;;32.70;14.60;;;;;;5033303;28;20461;-69
2022/02/25 12:08:26;;;;;;;3.27;1.20;;;34.70;13.20;;;;;;5033429;28;20514;-69
2022/02/25 12:10:53;;;;;;;6.33;2.10;;;36.10;12.20;;;;;;5033293;28;20442;-71
2022/02/25 12:13:23;;;;;;;2.80;1.40;;;37.00;11.20;;;;;;5028903;28;20497;-69
2022/02/25 12:15:50;;;;;;;4.73;1.80;;;37.50;10.40;;;;;;5029221;28;20477;-71
2022/02/25 12:18:19;;;;;;;4.53;1.57;;;37.90;10.80;;;;;;5026315;28;20529;-69
2022/02/25 12:20:50;;;;;;;4.87;1.60;;;38.60;9.70;;;;;;5032619;28;20442;-69
2022/02/25 12:23:20;;;;;;;3.60;1.60;;;39.00;9.40;;;;;;5031813;28;20438;-69
2022/02/25 12:25:55;;;;;;;3.20;1.80;;;39.50;8.90;;;;;;5025760;28;20799;-69
2022/02/25 12:28:42;;;;;;;5.50;1.50;;;38.30;8.10;;;;;;5031991;28;20433;-70
2022/02/25 12:31:11;;;;;;;3.40;1.50;;;38.00;8.60;;;;;;5027489;28;20512;-69
2022/02/25 12:33:40;;;;;;;3.33;1.63;;;38.30;8.70;;;;;;5030772;28;20896;-69
2022/02/25 12:36:12;;;;;;;2.80;1.40;;;38.80;8.80;;;;;;5028342;28;20482;-72
2022/02/25 12:38:41;;;;;;;4.27;1.63;;;39.00;8.50;;;;;;5030441;28;20912;-70
2022/02/25 12:41:11;;;;;;;3.97;1.93;;;39.30;8.50;;;;;;5031729;28;20434;-69
2022/02/25 12:43:46;;;;;;;3.03;1.50;;;39.60;8.00;;;;;;5031858;28;20756;-70
2022/02/25 12:46:13;;;;;;;4.20;1.40;;;39.50;7.40;;;;;;5026757;28;20520;-69
2022/02/25 12:48:41;;;;;;;7.00;1.77;;;39.30;6.30;;;;;;5030360;28;20966;-74
2022/02/25 12:51:08;;;;;;;3.50;1.13;;;39.00;6.20;;;;;;5029962;28;20485;-69
2022/02/25 12:53:52;;;;;;;2.40;1.10;;;38.70;5.60;;;;;;5030696;28;20529;-70
2022/02/25 12:56:20;;;;;;;3.60;1.70;;;35.70;4.50;;;;;;5031673;28;20514;-69
2022/02/25 12:58:49;;;;;;;3.27;1.57;;;32.50;6.40;;;;;;5031935;28;20429;-68
2022/02/25 13:01:20;;;;;;;5.77;1.60;;;30.40;7.40;;;;;;5031609;28;20530;-72
2022/02/25 13:03:58;;;;;;;4.90;1.50;;;29.90;9.10;;;;;;5031505;28;20473;-69
2022/02/25 13:06:27;;;;;;;3.30;1.20;;;29.90;10.20;;;;;;5031964;28;20472;-68
2022/02/25 13:08:55;;;;;;;3.80;1.10;;;29.30;8.60;;;;;;5031240;28;20437;-70
2022/02/25 13:11:23;;;;;;;3.73;1.30;;;29.00;10.30;;;;;;5027538;28;20491;-68